sensor_id;sensor_type;location;lat;lon;timestamp;pressure;altitude;pressure_sealevel;temperature;humidity
53550;BME280;67273;52.914;-0.982;2023-02-18T00:00:51;101553.72;;;18.74;47.01
53550;BME280;67273;52.914;-0.982;2023-02-18T00:03:17;101561.22;;;18.72;47.04
53550;BME280;67273;52.914;-0.982;2023-02-18T00:05:42;101553.06;;;18.72;47.07
53550;BME280;67273;52.914;-0.982;2023-02-18T00:08:08;101546.78;;;18.72;47.33
53550;BME280;67273;52.914;-0.982;2023-02-18T00:10:35;101536.13;;;18.70;47.16
53550;BME280;67273;52.914;-0.982;2023-02-18T00:13:01;101523.59;;;18.69;47.02
53550;BME280;67273;52.914;-0.982;2023-02-18T00:15:27;101525.22;;;18.70;47.09
53550;BME280;67273;52.914;-0.982;2023-02-18T00:17:53;101516.44;;;18.68;46.98
53550;BME280;67273;52.914;-0.982;2023-02-18T00:20:19;101512.91;;;18.68;47.10
53550;BME280;67273;52.914;-0.982;2023-02-18T00:22:44;101508.28;;;18.68;47.16
53550;BME280;67273;52.914;-0.982;2023-02-18T00:25:10;101517.53;;;18.67;47.04
53550;BME280;67273;52.914;-0.982;2023-02-18T00:27:37;101514.81;;;18.67;47.13
53550;BME280;67273;52.914;-0.982;2023-02-18T00:30:04;101517.75;;;18.66;47.19
53550;BME280;67273;52.914;-0.982;2023-02-18T00:32:33;101523.19;;;18.66;47.05
53550;BME280;67273;52.914;-0.982;2023-02-18T00:34:59;101509.78;;;18.64;47.08
53550;BME280;67273;52.914;-0.982;2023-02-18T00:37:25;101509.78;;;18.64;47.12
53550;BME280;67273;52.914;-0.982;2023-02-18T00:39:50;101513.56;;;18.63;47.06
53550;BME280;67273;52.914;-0.982;2023-02-18T00:42:16;101497.22;;;18.63;47.15
53550;BME280;67273;52.914;-0.982;2023-02-18T00:44:43;101504.34;;;18.64;47.08
53550;BME280;67273;52.914;-0.982;2023-02-18T00:47:09;101505.38;;;18.63;47.23
53550;BME280;67273;52.914;-0.982;2023-02-18T00:49:35;101475.66;;;18.61;47.04
53550;BME280;67273;52.914;-0.982;2023-02-18T00:52:02;101475.88;;;18.60;47.01
53550;BME280;67273;52.914;-0.982;2023-02-18T00:54:28;101469.59;;;18.59;47.08
53550;BME280;67273;52.914;-0.982;2023-02-18T00:56:54;101457.91;;;18.59;47.05
53550;BME280;67273;52.914;-0.982;2023-02-18T00:59:19;101458.72;;;18.59;47.16
53550;BME280;67273;52.914;-0.982;2023-02-18T01:01:47;101454.34;;;18.58;47.10
53550;BME280;67273;52.914;-0.982;2023-02-18T01:04:13;101456.22;;;18.58;47.11
53550;BME280;67273;52.914;-0.982;2023-02-18T01:06:38;101451.84;;;18.57;47.38
53550;BME280;67273;52.914;-0.982;2023-02-18T01:09:04;101446.41;;;18.57;47.18
53550;BME280;67273;52.914;-0.982;2023-02-18T01:11:30;101460.00;;;18.57;47.10
53550;BME280;67273;52.914;-0.982;2023-02-18T01:13:56;101458.31;;;18.56;47.17
53550;BME280;67273;52.914;-0.982;2023-02-18T01:16:22;101457.50;;;18.55;47.17
53550;BME280;67273;52.914;-0.982;2023-02-18T01:18:49;101456.69;;;18.55;47.00
53550;BME280;67273;52.914;-0.982;2023-02-18T01:21:15;101453.09;;;18.54;47.08
53550;BME280;67273;52.914;-0.982;2023-02-18T01:23:41;101463.97;;;18.54;47.07
53550;BME280;67273;52.914;-0.982;2023-02-18T01:26:08;101455.00;;;18.54;47.11
53550;BME280;67273;52.914;-0.982;2023-02-18T01:28:36;101442.44;;;18.53;47.02
53550;BME280;67273;52.914;-0.982;2023-02-18T01:31:06;101455.00;;;18.54;47.08
53550;BME280;67273;52.914;-0.982;2023-02-18T01:33:32;101453.31;;;18.53;47.05
53550;BME280;67273;52.914;-0.982;2023-02-18T01:36:01;101447.03;;;18.52;47.00
53550;BME280;67273;52.914;-0.982;2023-02-18T01:38:27;101439.09;;;18.51;47.06
53550;BME280;67273;52.914;-0.982;2023-02-18T01:40:53;101441.81;;;18.51;47.19
53550;BME280;67273;52.914;-0.982;2023-02-18T01:43:20;101450.84;;;18.51;47.18
53550;BME280;67273;52.914;-0.982;2023-02-18T01:46:07;101442.03;;;18.49;47.16
53550;BME280;67273;52.914;-0.982;2023-02-18T01:48:38;101439.56;;;18.48;47.11
53550;BME280;67273;52.914;-0.982;2023-02-18T01:51:10;101447.72;;;18.48;47.22
53550;BME280;67273;52.914;-0.982;2023-02-18T01:53:48;101455.88;;;18.48;47.19
53550;BME280;67273;52.914;-0.982;2023-02-18T01:56:20;101444.16;;;18.47;47.18
53550;BME280;67273;52.914;-0.982;2023-02-18T01:58:48;101439.56;;;18.48;47.17
53550;BME280;67273;52.914;-0.982;2023-02-18T02:01:14;101429.94;;;18.45;47.21
53550;BME280;67273;52.914;-0.982;2023-02-18T02:03:40;101417.41;;;18.44;47.17
53550;BME280;67273;52.914;-0.982;2023-02-18T02:06:16;101428.28;;;18.44;47.23
53550;BME280;67273;52.914;-0.982;2023-02-18T02:08:43;101411.09;;;18.43;47.37
53550;BME280;67273;52.914;-0.982;2023-02-18T02:11:20;101402.94;;;18.43;47.25
53550;BME280;67273;52.914;-0.982;2023-02-18T02:14:00;101406.72;;;18.42;47.28
53550;BME280;67273;52.914;-0.982;2023-02-18T02:16:31;101396.88;;;18.41;47.18
53550;BME280;67273;52.914;-0.982;2023-02-18T02:19:11;101395.22;;;18.40;47.07
53550;BME280;67273;52.914;-0.982;2023-02-18T02:22:28;101393.56;;;18.39;47.24
53550;BME280;67273;52.914;-0.982;2023-02-18T02:25:28;101401.50;;;18.41;47.09
53550;BME280;67273;52.914;-0.982;2023-02-18T02:28:33;101381.63;;;18.40;47.18
53550;BME280;67273;52.914;-0.982;2023-02-18T02:31:28;101369.28;;;18.38;47.19
53550;BME280;67273;52.914;-0.982;2023-02-18T02:34:37;101369.28;;;18.38;47.28
53550;BME280;67273;52.914;-0.982;2023-02-18T02:37:14;101345.84;;;18.37;47.14
53550;BME280;67273;52.914;-0.982;2023-02-18T02:39:50;101346.69;;;18.37;47.15
53550;BME280;67273;52.914;-0.982;2023-02-18T02:42:28;101341.47;;;18.36;47.24
53550;BME280;67273;52.914;-0.982;2023-02-18T02:45:05;101343.38;;;18.35;47.25
53550;BME280;67273;52.914;-0.982;2023-02-18T02:47:42;101336.25;;;18.34;47.21
53550;BME280;67273;52.914;-0.982;2023-02-18T02:50:19;101340.00;;;18.33;47.27
53550;BME280;67273;52.914;-0.982;2023-02-18T02:52:53;101347.13;;;18.34;47.04
53550;BME280;67273;52.914;-0.982;2023-02-18T02:55:24;101338.34;;;18.32;47.18
53550;BME280;67273;52.914;-0.982;2023-02-18T02:57:55;101343.81;;;18.32;46.99
53550;BME280;67273;52.914;-0.982;2023-02-18T03:00:33;101338.34;;;18.32;46.87
53550;BME280;67273;52.914;-0.982;2023-02-18T03:03:18;101322.25;;;18.31;47.16
53550;BME280;67273;52.914;-0.982;2023-02-18T03:06:05;101323.28;;;18.30;47.17
53550;BME280;67273;52.914;-0.982;2023-02-18T03:08:40;101329.59;;;18.30;47.07
53550;BME280;67273;52.914;-0.982;2023-02-18T03:11:12;101335.03;;;18.30;47.33
53550;BME280;67273;52.914;-0.982;2023-02-18T03:13:55;101319.97;;;18.28;47.04
53550;BME280;67273;52.914;-0.982;2023-02-18T03:16:29;101309.09;;;18.28;47.13
53550;BME280;67273;52.914;-0.982;2023-02-18T03:19:03;101310.97;;;18.27;47.19
53550;BME280;67273;52.914;-0.982;2023-02-18T03:21:36;101302.81;;;18.27;47.14
53550;BME280;67273;52.914;-0.982;2023-02-18T03:24:07;101296.56;;;18.27;47.08
53550;BME280;67273;52.914;-0.982;2023-02-18T03:26:36;101290.25;;;18.26;47.00
53550;BME280;67273;52.914;-0.982;2023-02-18T03:29:06;101288.63;;;18.25;47.26
53550;BME280;67273;52.914;-0.982;2023-02-18T03:31:36;101290.25;;;18.26;47.08
53550;BME280;67273;52.914;-0.982;2023-02-18T03:34:08;101270.63;;;18.24;47.08
53550;BME280;67273;52.914;-0.982;2023-02-18T03:36:37;101276.06;;;18.24;46.91
53550;BME280;67273;52.914;-0.982;2023-02-18T03:39:08;101268.97;;;18.23;47.17
53550;BME280;67273;52.914;-0.982;2023-02-18T03:41:35;101272.72;;;18.22;46.97
53550;BME280;67273;52.914;-0.982;2023-02-18T03:44:03;101268.13;;;18.22;47.03
53550;BME280;67273;52.914;-0.982;2023-02-18T03:46:30;101270.84;;;18.22;46.98
53550;BME280;67273;52.914;-0.982;2023-02-18T03:48:57;101264.56;;;18.22;46.95
53550;BME280;67273;52.914;-0.982;2023-02-18T03:51:24;101267.28;;;18.22;47.00
53550;BME280;67273;52.914;-0.982;2023-02-18T03:53:52;101256.41;;;18.22;46.97
53550;BME280;67273;52.914;-0.982;2023-02-18T03:56:18;101254.75;;;18.21;47.03
53550;BME280;67273;52.914;-0.982;2023-02-18T03:58:46;101250.16;;;18.21;46.92
53550;BME280;67273;52.914;-0.982;2023-02-18T04:01:14;101246.59;;;18.21;47.14
53550;BME280;67273;52.914;-0.982;2023-02-18T04:03:41;101239.50;;;18.20;46.93
53550;BME280;67273;52.914;-0.982;2023-02-18T04:06:07;101240.53;;;18.19;46.98
53550;BME280;67273;52.914;-0.982;2023-02-18T04:08:33;101238.88;;;18.18;46.96
53550;BME280;67273;52.914;-0.982;2023-02-18T04:11:00;101248.69;;;18.19;46.89
53550;BME280;67273;52.914;-0.982;2023-02-18T04:13:26;101261.47;;;18.18;46.99
53550;BME280;67273;52.914;-0.982;2023-02-18T04:15:52;101256.25;;;18.17;46.97
53550;BME280;67273;52.914;-0.982;2023-02-18T04:18:18;101258.97;;;18.17;46.95
53550;BME280;67273;52.914;-0.982;2023-02-18T04:20:44;101249.16;;;18.16;46.88
53550;BME280;67273;52.914;-0.982;2023-02-18T04:23:13;101249.16;;;18.16;46.94
53550;BME280;67273;52.914;-0.982;2023-02-18T04:25:39;101249.16;;;18.16;46.90
53550;BME280;67273;52.914;-0.982;2023-02-18T04:28:06;101251.00;;;18.15;46.92
53550;BME280;67273;52.914;-0.982;2023-02-18T04:30:35;101255.63;;;18.15;46.96
53550;BME280;67273;52.914;-0.982;2023-02-18T04:33:01;101253.75;;;18.15;47.00
53550;BME280;67273;52.914;-0.982;2023-02-18T04:35:27;101252.91;;;18.15;47.01
53550;BME280;67273;52.914;-0.982;2023-02-18T04:37:52;101244.16;;;18.13;46.97
53550;BME280;67273;52.914;-0.982;2023-02-18T04:40:18;101245.19;;;18.12;47.12
53550;BME280;67273;52.914;-0.982;2023-02-18T04:42:44;101248.13;;;18.10;46.94
53550;BME280;67273;52.914;-0.982;2023-02-18T04:45:11;101245.41;;;18.10;46.93
53550;BME280;67273;52.914;-0.982;2023-02-18T04:47:37;101254.41;;;18.11;46.95
53550;BME280;67273;52.914;-0.982;2023-02-18T04:50:03;101257.13;;;18.11;46.98
53550;BME280;67273;52.914;-0.982;2023-02-18T04:52:29;101254.41;;;18.11;46.94
53550;BME280;67273;52.914;-0.982;2023-02-18T04:54:54;101257.56;;;18.08;47.04
53550;BME280;67273;52.914;-0.982;2023-02-18T04:57:20;101249.41;;;18.08;47.06
53550;BME280;67273;52.914;-0.982;2023-02-18T04:59:46;101253.16;;;18.07;47.01
53550;BME280;67273;52.914;-0.982;2023-02-18T05:02:13;101261.34;;;18.07;47.00
53550;BME280;67273;52.914;-0.982;2023-02-18T05:04:39;101264.06;;;18.07;46.99
53550;BME280;67273;52.914;-0.982;2023-02-18T05:07:04;101263.22;;;18.06;46.95
53550;BME280;67273;52.914;-0.982;2023-02-18T05:09:30;101262.41;;;18.05;47.07
53550;BME280;67273;52.914;-0.982;2023-02-18T05:11:56;101259.91;;;18.04;47.07
53550;BME280;67273;52.914;-0.982;2023-02-18T05:14:22;101253.63;;;18.03;46.91
53550;BME280;67273;52.914;-0.982;2023-02-18T05:16:47;101263.44;;;18.04;47.04
53550;BME280;67273;52.914;-0.982;2023-02-18T05:19:15;101260.72;;;18.04;47.10
53550;BME280;67273;52.914;-0.982;2023-02-18T05:21:41;101247.13;;;18.04;46.98
53550;BME280;67273;52.914;-0.982;2023-02-18T05:24:07;101254.47;;;18.04;47.01
53550;BME280;67273;52.914;-0.982;2023-02-18T05:26:33;101258.22;;;18.03;46.91
53550;BME280;67273;52.914;-0.982;2023-02-18T05:28:59;101241.91;;;18.03;46.91
53550;BME280;67273;52.914;-0.982;2023-02-18T05:31:25;101251.13;;;18.02;47.08
53550;BME280;67273;52.914;-0.982;2023-02-18T05:33:51;101248.19;;;18.03;47.03
53550;BME280;67273;52.914;-0.982;2023-02-18T05:36:18;101258.47;;;18.01;47.10
53550;BME280;67273;52.914;-0.982;2023-02-18T05:38:44;101250.31;;;18.01;47.09
53550;BME280;67273;52.914;-0.982;2023-02-18T05:41:09;101244.88;;;18.01;47.03
53550;BME280;67273;52.914;-0.982;2023-02-18T05:43:35;101245.91;;;18.00;47.19
53550;BME280;67273;52.914;-0.982;2023-02-18T05:46:21;101245.91;;;18.00;47.09
53550;BME280;67273;52.914;-0.982;2023-02-18T05:48:47;101243.19;;;18.00;47.15
53550;BME280;67273;52.914;-0.982;2023-02-18T05:51:12;101247.81;;;18.00;47.13
53550;BME280;67273;52.914;-0.982;2023-02-18T05:53:40;101245.31;;;17.98;47.04
53550;BME280;67273;52.914;-0.982;2023-02-18T05:56:06;101227.31;;;17.97;47.19
53550;BME280;67273;52.914;-0.982;2023-02-18T05:58:32;101230.03;;;17.97;47.13
53550;BME280;67273;52.914;-0.982;2023-02-18T06:00:57;101233.59;;;17.98;46.96
53550;BME280;67273;52.914;-0.982;2023-02-18T06:03:23;101230.25;;;17.96;47.21
53550;BME280;67273;52.914;-0.982;2023-02-18T06:05:49;101236.53;;;17.96;47.01
53550;BME280;67273;52.914;-0.982;2023-02-18T06:08:15;101231.09;;;17.96;46.90
53550;BME280;67273;52.914;-0.982;2023-02-18T06:10:42;101222.31;;;17.94;47.20
53550;BME280;67273;52.914;-0.982;2023-02-18T06:13:08;101232.16;;;17.95;47.19
53550;BME280;67273;52.914;-0.982;2023-02-18T06:15:33;101234.03;;;17.95;47.25
53550;BME280;67273;52.914;-0.982;2023-02-18T06:17:59;101226.94;;;17.94;47.16
53550;BME280;67273;52.914;-0.982;2023-02-18T06:20:25;101212.50;;;17.93;47.08
53550;BME280;67273;52.914;-0.982;2023-02-18T06:22:50;101220.66;;;17.93;47.26
53550;BME280;67273;52.914;-0.982;2023-02-18T06:25:16;101235.28;;;17.92;47.29
53550;BME280;67273;52.914;-0.982;2023-02-18T06:27:43;101225.28;;;17.93;47.35
53550;BME280;67273;52.914;-0.982;2023-02-18T06:30:10;101217.34;;;17.91;47.35
53550;BME280;67273;52.914;-0.982;2023-02-18T06:32:35;101214.63;;;17.91;47.48
53550;BME280;67273;52.914;-0.982;2023-02-18T06:35:01;101211.03;;;17.91;47.53
53550;BME280;67273;52.914;-0.982;2023-02-18T06:37:27;101216.47;;;17.91;47.34
53550;BME280;67273;52.914;-0.982;2023-02-18T06:39:53;101221.09;;;17.90;47.49
53550;BME280;67273;52.914;-0.982;2023-02-18T06:42:18;101224.63;;;17.91;47.49
53550;BME280;67273;52.914;-0.982;2023-02-18T06:44:45;101227.75;;;17.94;47.47
53550;BME280;67273;52.914;-0.982;2023-02-18T06:47:11;101226.88;;;18.00;47.24
53550;BME280;67273;52.914;-0.982;2023-02-18T06:49:37;101220.09;;;18.10;47.01
53550;BME280;67273;52.914;-0.982;2023-02-18T06:52:03;101232.59;;;18.17;46.77
53550;BME280;67273;52.914;-0.982;2023-02-18T06:54:29;101228.16;;;18.23;46.67
53550;BME280;67273;52.914;-0.982;2023-02-18T06:56:55;101235.00;;;18.32;46.52
53550;BME280;67273;52.914;-0.982;2023-02-18T06:59:21;101238.47;;;18.39;46.42
53550;BME280;67273;52.914;-0.982;2023-02-18T07:01:48;101243.66;;;18.48;46.18
53550;BME280;67273;52.914;-0.982;2023-02-18T07:04:14;101235.63;;;18.53;46.35
53550;BME280;67273;52.914;-0.982;2023-02-18T07:06:40;101242.28;;;18.57;46.24
53550;BME280;67273;52.914;-0.982;2023-02-18T07:09:06;101241.00;;;18.59;46.06
53550;BME280;67273;52.914;-0.982;2023-02-18T07:11:32;101239.75;;;18.62;46.15
53550;BME280;67273;52.914;-0.982;2023-02-18T07:13:57;101234.91;;;18.64;46.11
53550;BME280;67273;52.914;-0.982;2023-02-18T07:16:23;101239.25;;;18.65;46.13
53550;BME280;67273;52.914;-0.982;2023-02-18T07:18:50;101229.22;;;18.66;46.08
53550;BME280;67273;52.914;-0.982;2023-02-18T07:21:16;101243.44;;;18.68;46.13
53550;BME280;67273;52.914;-0.982;2023-02-18T07:23:42;101249.72;;;18.68;46.05
53550;BME280;67273;52.914;-0.982;2023-02-18T07:26:10;101244.28;;;18.68;46.15
53550;BME280;67273;52.914;-0.982;2023-02-18T07:28:36;101249.72;;;18.68;46.20
53550;BME280;67273;52.914;-0.982;2023-02-18T07:31:02;101259.56;;;18.69;46.08
53550;BME280;67273;52.914;-0.982;2023-02-18T07:33:28;101260.59;;;18.68;46.31
53550;BME280;67273;52.914;-0.982;2023-02-18T07:35:56;101261.66;;;18.67;46.27
53550;BME280;67273;52.914;-0.982;2023-02-18T07:38:22;101262.50;;;18.68;46.33
53550;BME280;67273;52.914;-0.982;2023-02-18T07:40:49;101271.47;;;18.68;46.39
53550;BME280;67273;52.914;-0.982;2023-02-18T07:43:15;101282.38;;;18.68;46.24
53550;BME280;67273;52.914;-0.982;2023-02-18T07:45:41;101281.56;;;18.68;46.38
53550;BME280;67273;52.914;-0.982;2023-02-18T07:48:06;101282.59;;;18.67;46.37
53550;BME280;67273;52.914;-0.982;2023-02-18T07:50:32;101299.78;;;18.67;46.38
53550;BME280;67273;52.914;-0.982;2023-02-18T07:53:03;101295.38;;;18.66;46.12
53550;BME280;67273;52.914;-0.982;2023-02-18T07:55:29;101288.88;;;18.67;46.40
53550;BME280;67273;52.914;-0.982;2023-02-18T07:58:13;101314.66;;;18.65;46.67
53550;BME280;67273;52.914;-0.982;2023-02-18T08:00:39;101303.75;;;18.65;46.26
53550;BME280;67273;52.914;-0.982;2023-02-18T08:03:05;101329.16;;;18.84;47.99
53550;BME280;67273;52.914;-0.982;2023-02-18T08:05:31;101332.06;;;18.89;48.47
53550;BME280;67273;52.914;-0.982;2023-02-18T08:07:57;101332.94;;;18.83;48.18
53550;BME280;67273;52.914;-0.982;2023-02-18T08:10:24;101329.81;;;18.79;48.07
53550;BME280;67273;52.914;-0.982;2023-02-18T08:12:50;101330.03;;;18.77;47.98
53550;BME280;67273;52.914;-0.982;2023-02-18T08:15:16;101334.84;;;18.75;47.92
53550;BME280;67273;52.914;-0.982;2023-02-18T08:17:42;101343.03;;;18.75;47.70
53550;BME280;67273;52.914;-0.982;2023-02-18T08:20:08;101343.47;;;18.72;47.76
53550;BME280;67273;52.914;-0.982;2023-02-18T08:22:35;101346.81;;;18.74;47.61
53550;BME280;67273;52.914;-0.982;2023-02-18T08:25:01;101346.81;;;18.74;47.66
53550;BME280;67273;52.914;-0.982;2023-02-18T08:27:28;101351.41;;;18.74;47.49
53550;BME280;67273;52.914;-0.982;2023-02-18T08:29:54;101356.03;;;18.73;47.51
53550;BME280;67273;52.914;-0.982;2023-02-18T08:32:20;101358.75;;;18.73;47.37
53550;BME280;67273;52.914;-0.982;2023-02-18T08:34:46;101370.69;;;18.72;47.41
53550;BME280;67273;52.914;-0.982;2023-02-18T08:37:12;101370.69;;;18.72;47.32
53550;BME280;67273;52.914;-0.982;2023-02-18T08:39:38;101364.19;;;18.73;47.28
53550;BME280;67273;52.914;-0.982;2023-02-18T08:42:04;101366.91;;;18.73;47.10
53550;BME280;67273;52.914;-0.982;2023-02-18T08:44:31;101375.09;;;18.73;47.10
53550;BME280;67273;52.914;-0.982;2023-02-18T08:46:57;101375.91;;;18.74;47.12
53550;BME280;67273;52.914;-0.982;2023-02-18T08:49:23;101379.50;;;18.74;46.83
53550;BME280;67273;52.914;-0.982;2023-02-18T08:51:49;101385.97;;;18.73;47.01
53550;BME280;67273;52.914;-0.982;2023-02-18T08:54:15;101396.88;;;18.73;47.07
53550;BME280;67273;52.914;-0.982;2023-02-18T08:56:41;101396.88;;;18.73;46.82
53550;BME280;67273;52.914;-0.982;2023-02-18T08:59:07;101399.59;;;18.73;46.89
53550;BME280;67273;52.914;-0.982;2023-02-18T09:01:34;101401.47;;;18.73;46.88
53550;BME280;67273;52.914;-0.982;2023-02-18T09:04:00;101416.97;;;18.72;46.90
53550;BME280;67273;52.914;-0.982;2023-02-18T09:06:26;101413.19;;;18.73;46.76
53550;BME280;67273;52.914;-0.982;2023-02-18T09:08:52;101415.91;;;18.73;46.71
53550;BME280;67273;52.914;-0.982;2023-02-18T09:11:18;101418.84;;;18.72;46.91
53550;BME280;67273;52.914;-0.982;2023-02-18T09:13:44;101422.41;;;18.72;46.78
53550;BME280;67273;52.914;-0.982;2023-02-18T09:16:12;101428.50;;;18.74;46.81
53550;BME280;67273;52.914;-0.982;2023-02-18T09:18:40;101431.22;;;18.74;46.78
53550;BME280;67273;52.914;-0.982;2023-02-18T09:21:07;101437.69;;;18.73;46.61
53550;BME280;67273;52.914;-0.982;2023-02-18T09:23:34;101435.78;;;18.74;46.64
53550;BME280;67273;52.914;-0.982;2023-02-18T09:26:03;101429.69;;;18.85;47.15
53550;BME280;67273;52.914;-0.982;2023-02-18T09:28:29;101423.38;;;18.85;48.66
53550;BME280;67273;52.914;-0.982;2023-02-18T09:30:55;101428.41;;;18.81;50.07
53550;BME280;67273;52.914;-0.982;2023-02-18T09:33:21;101434.38;;;18.71;49.61
53550;BME280;67273;52.914;-0.982;2023-02-18T09:35:48;101427.91;;;18.66;49.40
53550;BME280;67273;52.914;-0.982;2023-02-18T09:38:15;101430.25;;;18.62;49.04
53550;BME280;67273;52.914;-0.982;2023-02-18T09:40:44;101431.28;;;18.61;48.92
53550;BME280;67273;52.914;-0.982;2023-02-18T09:43:18;101436.13;;;18.59;48.94
53550;BME280;67273;52.914;-0.982;2023-02-18T09:45:47;101451.63;;;18.58;48.69
53550;BME280;67273;52.914;-0.982;2023-02-18T09:48:14;101448.91;;;18.58;48.74
53550;BME280;67273;52.914;-0.982;2023-02-18T09:50:39;101447.44;;;18.56;48.57
53550;BME280;67273;52.914;-0.982;2023-02-18T09:53:10;101450.16;;;18.56;48.44
53550;BME280;67273;52.914;-0.982;2023-02-18T09:55:38;101455.59;;;18.56;48.48
53550;BME280;67273;52.914;-0.982;2023-02-18T09:58:10;101453.94;;;18.55;48.39
53550;BME280;67273;52.914;-0.982;2023-02-18T10:00:40;101455.00;;;18.54;48.39
53550;BME280;67273;52.914;-0.982;2023-02-18T10:03:11;101461.25;;;18.54;48.23
53550;BME280;67273;52.914;-0.982;2023-02-18T10:05:41;101476.75;;;18.54;48.08
53550;BME280;67273;52.914;-0.982;2023-02-18T10:08:20;101458.75;;;18.53;48.21
53550;BME280;67273;52.914;-0.982;2023-02-18T10:10:47;101457.94;;;18.52;48.07
53550;BME280;67273;52.914;-0.982;2023-02-18T10:13:15;101458.75;;;18.53;48.20
53550;BME280;67273;52.914;-0.982;2023-02-18T10:15:42;101464.19;;;18.53;48.03
53550;BME280;67273;52.914;-0.982;2023-02-18T10:18:17;101465.06;;;18.53;48.58
53550;BME280;67273;52.914;-0.982;2023-02-18T10:20:44;101476.75;;;18.54;48.57
53550;BME280;67273;52.914;-0.982;2023-02-18T10:23:13;101476.75;;;18.54;48.45
53550;BME280;67273;52.914;-0.982;2023-02-18T10:25:43;101481.41;;;18.47;48.93
53550;BME280;67273;52.914;-0.982;2023-02-18T10:28:10;101465.09;;;18.47;48.84
53550;BME280;67273;52.914;-0.982;2023-02-18T10:30:39;101469.50;;;18.48;48.79
53550;BME280;67273;52.914;-0.982;2023-02-18T10:33:20;101474.06;;;18.47;48.77
53550;BME280;67273;52.914;-0.982;2023-02-18T10:35:52;101481.19;;;18.48;48.64
53550;BME280;67273;52.914;-0.982;2023-02-18T10:38:32;101479.72;;;18.46;48.56
53550;BME280;67273;52.914;-0.982;2023-02-18T10:41:08;101467.19;;;18.45;48.68
53550;BME280;67273;52.914;-0.982;2023-02-18T10:43:43;101464.69;;;18.43;48.57
53550;BME280;67273;52.914;-0.982;2023-02-18T10:46:17;101464.69;;;18.43;48.63
53550;BME280;67273;52.914;-0.982;2023-02-18T10:49:03;101459.25;;;18.43;48.53
53550;BME280;67273;52.914;-0.982;2023-02-18T10:51:36;101462.19;;;18.41;48.50
53550;BME280;67273;52.914;-0.982;2023-02-18T10:54:06;101462.19;;;18.41;48.57
53550;BME280;67273;52.914;-0.982;2023-02-18T10:56:36;101453.41;;;18.39;48.48
53550;BME280;67273;52.914;-0.982;2023-02-18T10:59:12;101458.84;;;18.39;48.42
53550;BME280;67273;52.914;-0.982;2023-02-18T11:01:40;101456.34;;;18.38;48.50
53550;BME280;67273;52.914;-0.982;2023-02-18T11:04:12;101456.56;;;18.36;48.52
53550;BME280;67273;52.914;-0.982;2023-02-18T11:06:40;101463.91;;;18.36;48.34
53550;BME280;67273;52.914;-0.982;2023-02-18T11:09:24;101475.59;;;18.36;48.51
53550;BME280;67273;52.914;-0.982;2023-02-18T11:11:59;101470.16;;;18.36;48.57
53550;BME280;67273;52.914;-0.982;2023-02-18T11:14:37;101472.28;;;18.34;48.49
53550;BME280;67273;52.914;-0.982;2023-02-18T11:17:09;101469.53;;;18.34;48.31
53550;BME280;67273;52.914;-0.982;2023-02-18T11:19:40;101465.16;;;18.33;48.40
53550;BME280;67273;52.914;-0.982;2023-02-18T11:22:12;101473.31;;;18.33;48.44
53550;BME280;67273;52.914;-0.982;2023-02-18T11:24:41;101460.78;;;18.32;48.38
53550;BME280;67273;52.914;-0.982;2023-02-18T11:27:19;101466.22;;;18.32;48.38
53550;BME280;67273;52.914;-0.982;2023-02-18T11:29:49;101475.41;;;18.31;48.43
53550;BME280;67273;52.914;-0.982;2023-02-18T11:32:17;101479.81;;;18.32;48.17
53550;BME280;67273;52.914;-0.982;2023-02-18T11:34:43;101467.25;;;18.31;48.37
53550;BME280;67273;52.914;-0.982;2023-02-18T11:37:12;101478.13;;;18.31;48.36
53550;BME280;67273;52.914;-0.982;2023-02-18T11:39:45;101466.44;;;18.31;48.19
53550;BME280;67273;52.914;-0.982;2023-02-18T11:42:14;101466.63;;;18.29;48.25
53550;BME280;67273;52.914;-0.982;2023-02-18T11:44:48;101467.47;;;18.30;48.52
53550;BME280;67273;52.914;-0.982;2023-02-18T11:47:24;101471.03;;;18.30;48.22
53550;BME280;67273;52.914;-0.982;2023-02-18T11:50:13;101475.63;;;18.30;48.23
53550;BME280;67273;52.914;-0.982;2023-02-18T11:52:40;101464.53;;;18.31;48.04
53550;BME280;67273;52.914;-0.982;2023-02-18T11:55:13;101466.44;;;18.31;48.11
53550;BME280;67273;52.914;-0.982;2023-02-18T11:57:43;101457.44;;;18.30;48.12
53550;BME280;67273;52.914;-0.982;2023-02-18T12:00:19;101458.28;;;18.31;48.11
53550;BME280;67273;52.914;-0.982;2023-02-18T12:02:46;101461.00;;;18.31;48.09
53550;BME280;67273;52.914;-0.982;2023-02-18T12:05:17;101469.97;;;18.31;48.05
53550;BME280;67273;52.914;-0.982;2023-02-18T12:07:46;101448.44;;;18.30;47.94
53550;BME280;67273;52.914;-0.982;2023-02-18T12:10:20;101450.53;;;18.28;47.95
53550;BME280;67273;52.914;-0.982;2023-02-18T12:12:51;101445.94;;;18.28;47.99
53550;BME280;67273;52.914;-0.982;2023-02-18T12:15:23;101433.19;;;18.29;47.92
53550;BME280;67273;52.914;-0.982;2023-02-18T12:18:12;101438.81;;;18.27;47.90
53550;BME280;67273;52.914;-0.982;2023-02-18T12:21:01;101436.09;;;18.27;47.80
53550;BME280;67273;52.914;-0.982;2023-02-18T12:23:37;101430.66;;;18.27;47.83
53550;BME280;67273;52.914;-0.982;2023-02-18T12:26:20;101434.22;;;18.28;47.70
53550;BME280;67273;52.914;-0.982;2023-02-18T12:29:21;101434.22;;;18.28;47.73
53550;BME280;67273;52.914;-0.982;2023-02-18T12:32:03;101440.50;;;18.28;47.76
53550;BME280;67273;52.914;-0.982;2023-02-18T12:34:46;101455.16;;;18.27;47.70
53550;BME280;67273;52.914;-0.982;2023-02-18T12:37:38;101455.97;;;18.28;47.86
53550;BME280;67273;52.914;-0.982;2023-02-18T12:40:24;101466.03;;;18.27;47.81
53550;BME280;67273;52.914;-0.982;2023-02-18T12:43:00;101463.53;;;18.26;47.52
53550;BME280;67273;52.914;-0.982;2023-02-18T12:45:42;101468.13;;;18.25;47.79
53550;BME280;67273;52.914;-0.982;2023-02-18T12:48:23;101457.47;;;18.23;47.55
53550;BME280;67273;52.914;-0.982;2023-02-18T12:51:04;101455.56;;;18.24;47.59
53550;BME280;67273;52.914;-0.982;2023-02-18T12:56:42;101454.13;;;18.21;47.61